Marton Grove, United Kingdom
Current Conditions -  °F | °C
As of 4:20 PM on Saturday 22 Nov 2014 (Local Time) from EGNV Reporting Station
Moderate Fog Moderate Fog  
Wind Chill: 45°   Ceiling: Unl
Heat Index: 48°   Visibility: 0.12mi
Dew Point: 48°   Wind: 7mph
Humidity: 100%   Direction: 190°S
Pressure: 29.85"   Gusts: NA
Location:  54.52°N, 1.17°W
Report Text: EGNV 221620Z 19006KT 0200 R23/0250 FG SCT003 09/09 Q1011
Loading
Personal Weather Stations






























Interactive Weather Map New forecast layout! Learn more

10-Day Weather Forecast

Advertisements
Track Severe Weather on mobile